Time;durP1;ratioP1;P1;durP2;ratioP2;P2;SDS_P1;SDS_P2;PMS_P1;PMS_P2;Temp;Humidity;BMP_temperature;BMP_pressure;BME280_temperature;BME280_humidity;BME280_pressure;Samples;Min_cycle;Max_cycle;Signal;HPM_P1;HPM_P2
2023/04/26 00:00:42;;;;;;;6.20;2.53;;;;;;;18.57;60.14;100434.75;5051717;28;20214;-62
2023/04/26 00:03:08;;;;;;;5.87;1.97;;;;;;;18.57;60.07;100431.06;5081472;28;20190;-62
2023/04/26 00:05:34;;;;;;;5.10;2.60;;;;;;;18.56;60.10;100433.09;5070255;28;20497;-62
2023/04/26 00:07:59;;;;;;;6.50;2.10;;;;;;;18.56;60.12;100423.72;5054308;28;20258;-62
2023/04/26 00:10:25;;;;;;;4.30;2.40;;;;;;;18.53;60.29;100422.44;5085071;28;20457;-63
2023/04/26 00:12:51;;;;;;;6.93;2.77;;;;;;;18.54;60.21;100420.38;5088512;28;20189;-62
2023/04/26 00:15:16;;;;;;;7.60;2.67;;;;;;;18.53;60.11;100413.84;5086904;28;20193;-62
2023/04/26 00:17:42;;;;;;;8.80;2.43;;;;;;;18.53;59.91;100415.88;5085466;28;20228;-61
2023/04/26 00:20:10;;;;;;;5.20;2.00;;;;;;;18.52;60.33;100417.09;5089247;28;20191;-62
2023/04/26 00:22:35;;;;;;;4.00;1.93;;;;;;;18.52;60.32;100417.09;5076634;28;20197;-62
2023/04/26 00:25:01;;;;;;;6.67;2.60;;;;;;;18.52;60.30;100417.91;5078015;28;20927;-62
2023/04/26 00:27:26;;;;;;;6.10;2.70;;;;;;;18.51;60.44;100421.16;5089526;28;20189;-62
2023/04/26 00:29:52;;;;;;;5.40;2.00;;;;;;;18.52;60.53;100417.91;5081301;28;20187;-61
2023/04/26 00:32:17;;;;;;;4.27;2.03;;;;;;;18.51;60.42;100424.81;5089738;28;20158;-61
2023/04/26 00:34:42;;;;;;;6.50;2.20;;;;;;;18.51;60.53;100426.88;5089317;28;20178;-61
2023/04/26 00:37:08;;;;;;;3.00;1.97;;;;;;;18.50;60.34;100423.19;5089454;28;20163;-62
2023/04/26 00:39:33;;;;;;;6.60;2.97;;;;;;;18.51;60.27;100424.81;5080994;28;20568;-61
2023/04/26 00:41:59;;;;;;;4.40;2.33;;;;;;;18.49;60.51;100423.56;5068752;28;20228;-62
2023/04/26 00:44:24;;;;;;;7.33;2.10;;;;;;;18.47;60.33;100423.13;5069009;28;20183;-61
2023/04/26 00:46:51;;;;;;;5.93;2.17;;;;;;;18.48;60.05;100422.75;5070863;28;20190;-62
2023/04/26 00:49:17;;;;;;;4.53;2.20;;;;;;;18.47;60.48;100432.50;5051236;28;20514;-62
2023/04/26 00:51:43;;;;;;;5.77;2.00;;;;;;;18.47;60.53;100426.78;5036712;28;20452;-62
2023/04/26 00:54:09;;;;;;;4.37;2.00;;;;;;;18.47;60.59;100443.13;5051072;28;20429;-62
2023/04/26 00:56:35;;;;;;;3.50;2.03;;;;;;;18.47;60.18;100449.66;5019293;28;20964;-61
2023/04/26 00:59:02;;;;;;;4.00;2.00;;;;;;;18.49;60.33;100446.41;5033753;28;20733;-61
2023/04/26 01:01:28;;;;;;;4.53;2.03;;;;;;;18.47;60.50;100437.41;5068929;28;20441;-61
2023/04/26 01:03:53;;;;;;;4.00;2.10;;;;;;;18.47;60.38;100443.94;5068733;28;20843;-63
2023/04/26 01:06:19;;;;;;;7.13;2.47;;;;;;;18.53;60.35;100444.47;5071326;28;20441;-62
2023/04/26 01:08:44;;;;;;;5.37;2.60;;;;;;;18.49;60.41;100447.25;5068770;28;20650;-61
2023/04/26 01:11:10;;;;;;;3.23;1.93;;;;;;;18.53;60.15;100447.31;5069452;28;20234;-61
2023/04/26 01:13:36;;;;;;;3.43;1.90;;;;;;;18.54;60.25;100441.22;5050677;28;20183;-61
2023/04/26 01:16:01;;;;;;;4.77;2.17;;;;;;;18.56;60.17;100447.38;5052715;28;20261;-63
2023/04/26 01:18:27;;;;;;;3.20;1.80;;;;;;;18.54;59.93;100443.25;5050365;28;20229;-62
2023/04/26 01:20:52;;;;;;;3.73;2.17;;;;;;;18.53;59.97;100433.03;5079261;28;20186;-62
2023/04/26 01:23:18;;;;;;;5.20;1.90;;;;;;;18.55;60.23;100433.47;5088744;28;20185;-62
2023/04/26 01:25:43;;;;;;;12.33;2.30;;;;;;;18.52;60.30;100435.06;5079208;28;20201;-61
2023/04/26 01:28:09;;;;;;;4.13;2.10;;;;;;;18.54;60.30;100432.66;5068207;28;20410;-61
2023/04/26 01:30:35;;;;;;;4.33;2.07;;;;;;;18.52;60.27;100434.25;5068280;28;20167;-61
2023/04/26 01:33:00;;;;;;;4.57;2.30;;;;;;;18.52;60.36;100434.25;5068253;28;20182;-62
2023/04/26 01:35:26;;;;;;;4.07;2.17;;;;;;;18.50;60.82;100437.47;5072965;28;20248;-61
2023/04/26 01:37:51;;;;;;;4.20;1.87;;;;;;;18.51;60.50;100438.31;5068317;28;20210;-61
2023/04/26 01:40:16;;;;;;;3.73;2.10;;;;;;;18.48;60.13;100434.19;5052392;28;20206;-63
2023/04/26 01:42:42;;;;;;;4.47;2.10;;;;;;;18.46;60.49;100433.72;5068234;28;20174;-62
2023/04/26 01:45:07;;;;;;;3.90;2.10;;;;;;;18.46;60.23;100445.16;5066920;28;20175;-62
2023/04/26 01:47:33;;;;;;;4.97;1.87;;;;;;;18.47;60.44;100446.78;5084526;28;20660;-62
2023/04/26 01:49:58;;;;;;;5.23;2.00;;;;;;;18.46;60.55;100450.84;5087297;28;20154;-62
2023/04/26 01:52:24;;;;;;;4.20;2.00;;;;;;;18.46;60.44;100439.44;5078126;28;20256;-62
2023/04/26 01:54:50;;;;;;;4.90;2.17;;;;;;;18.44;60.46;100452.44;5067299;28;20228;-63
2023/04/26 01:57:15;;;;;;;4.60;2.10;;;;;;;18.45;60.82;100449.22;5049375;28;20203;-61
2023/04/26 01:59:41;;;;;;;8.67;2.07;;;;;;;18.45;60.76;100454.09;5069043;28;21137;-63
2023/04/26 02:02:06;;;;;;;4.43;2.10;;;;;;;18.44;60.76;100444.72;5049586;28;20179;-61
2023/04/26 02:04:32;;;;;;;3.03;1.70;;;;;;;18.45;60.60;100440.63;5075907;28;20186;-62
2023/04/26 02:06:57;;;;;;;5.40;2.17;;;;;;;18.44;60.76;100446.72;5088106;28;20214;-61
2023/04/26 02:09:23;;;;;;;4.80;2.10;;;;;;;18.43;60.43;100443.06;5085442;28;20182;-62
2023/04/26 02:11:48;;;;;;;2.77;1.70;;;;;;;18.42;60.58;100447.09;5083461;28;20225;-61
2023/04/26 02:14:14;;;;;;;4.60;2.07;;;;;;;18.42;60.44;100452.00;5073436;28;20171;-61
2023/04/26 02:16:40;;;;;;;3.20;1.60;;;;;;;18.40;60.51;100438.06;5067805;28;20160;-62
2023/04/26 02:19:09;;;;;;;5.60;1.80;;;;;;;18.39;60.46;100442.16;5052271;28;20872;-61
2023/04/26 02:21:50;;;;;;;4.10;1.90;;;;;;;18.40;60.63;100451.53;5088025;28;20159;-61
2023/04/26 02:24:15;;;;;;;3.80;1.80;;;;;;;18.40;60.76;100457.25;5081275;28;21313;-62
2023/04/26 02:26:41;;;;;;;4.93;1.80;;;;;;;18.41;60.31;100456.88;5076186;28;20515;-62
2023/04/26 02:29:06;;;;;;;4.43;1.93;;;;;;;18.39;60.73;100449.88;5067387;28;20163;-63
2023/04/26 02:31:32;;;;;;;3.43;1.83;;;;;;;18.40;60.50;100454.38;5069846;28;20183;-61
2023/04/26 02:33:57;;;;;;;2.73;1.67;;;;;;;18.42;60.62;100458.53;5069128;28;20179;-63
2023/04/26 02:36:22;;;;;;;3.40;1.83;;;;;;;18.40;60.67;100458.09;5068505;28;20202;-62
2023/04/26 02:38:48;;;;;;;5.33;2.13;;;;;;;18.40;60.46;100458.09;5067913;28;20783;-62
2023/04/26 02:41:13;;;;;;;4.40;1.90;;;;;;;18.48;60.19;100465.63;5090378;28;20535;-62
2023/04/26 02:43:39;;;;;;;3.07;2.33;;;;;;;18.44;60.10;100456.13;5074845;28;20170;-62
2023/04/26 02:46:07;;;;;;;3.70;1.80;;;;;;;18.46;60.24;100452.91;5071285;28;20171;-62
2023/04/26 02:48:33;;;;;;;6.03;1.70;;;;;;;18.45;60.32;100451.22;5055207;28;20179;-63
2023/04/26 02:50:58;;;;;;;3.87;1.60;;;;;;;18.46;60.27;100450.06;5073862;28;20454;-63
2023/04/26 02:53:24;;;;;;;3.60;1.90;;;;;;;18.46;60.36;100442.28;5071455;28;20179;-62
2023/04/26 02:55:50;;;;;;;8.80;1.60;;;;;;;18.47;60.34;100446.78;5072272;28;20198;-62
2023/04/26 02:58:16;;;;;;;3.50;1.83;;;;;;;18.47;60.24;100448.84;5071037;28;20171;-62
2023/04/26 03:00:46;;;;;;;4.40;2.00;;;;;;;18.50;60.00;100453.78;5071487;28;20456;-62
2023/04/26 03:03:11;;;;;;;3.63;2.03;;;;;;;18.49;60.06;100447.25;5071062;28;20413;-62
2023/04/26 03:05:37;;;;;;;3.00;1.47;;;;;;;18.47;60.08;100449.66;5067955;28;20892;-61
2023/04/26 03:08:02;;;;;;;3.83;1.87;;;;;;;18.49;60.17;100440.69;5091367;28;20205;-62
2023/04/26 03:10:28;;;;;;;5.03;1.90;;;;;;;18.48;59.93;100439.06;5090589;28;20224;-61
2023/04/26 03:12:53;;;;;;;3.10;1.90;;;;;;;18.45;60.18;100434.91;5071104;28;20182;-61
2023/04/26 03:15:19;;;;;;;3.37;1.80;;;;;;;18.41;60.41;100434.00;5090704;28;20165;-62
2023/04/26 03:17:45;;;;;;;3.10;1.60;;;;;;;18.42;60.58;100432.81;5084091;28;20185;-62
2023/04/26 03:20:10;;;;;;;3.00;1.80;;;;;;;18.42;60.39;100440.56;5069310;28;20819;-62
2023/04/26 03:22:36;;;;;;;3.30;1.60;;;;;;;18.41;60.75;100427.50;5069662;28;20178;-62
2023/04/26 03:25:02;;;;;;;4.20;1.97;;;;;;;18.38;60.57;100431.94;5071805;28;20186;-62
2023/04/26 03:27:28;;;;;;;2.73;1.57;;;;;;;18.41;60.40;100427.50;5069526;28;20156;-62
2023/04/26 03:29:53;;;;;;;2.43;1.50;;;;;;;18.39;60.44;100435.59;5071569;28;20500;-62
2023/04/26 03:32:19;;;;;;;4.20;1.83;;;;;;;18.37;60.58;100433.09;5070159;28;20174;-62
2023/04/26 03:34:46;;;;;;;3.27;1.70;;;;;;;18.38;60.37;100433.94;5070522;28;20179;-61
2023/04/26 03:37:12;;;;;;;3.57;1.67;;;;;;;18.39;60.38;100439.28;5069798;28;20171;-62
2023/04/26 03:39:37;;;;;;;2.80;1.80;;;;;;;18.37;60.48;100433.09;5072009;28;20457;-62
2023/04/26 03:42:03;;;;;;;3.37;1.87;;;;;;;18.37;60.50;100432.28;5050846;28;20171;-63
2023/04/26 03:44:28;;;;;;;2.70;1.60;;;;;;;18.36;60.65;100425.75;5064378;28;20179;-61
2023/04/26 03:46:54;;;;;;;7.53;1.70;;;;;;;18.36;60.42;100425.75;5068414;28;20175;-62
2023/04/26 03:49:20;;;;;;;2.60;1.67;;;;;;;18.33;60.88;100426.50;5050656;28;20171;-61
2023/04/26 03:51:45;;;;;;;2.67;1.73;;;;;;;18.35;60.82;100424.09;5078932;28;20440;-62
2023/04/26 03:54:11;;;;;;;2.83;1.50;;;;;;;18.34;60.28;100422.44;5072631;28;20187;-62
2023/04/26 03:56:36;;;;;;;7.70;4.77;;;;;;;17.16;54.31;100415.53;5056339;28;20224;-62
2023/04/26 03:59:02;;;;;;;10.03;5.50;;;;;;;17.07;58.36;100423.47;5058073;28;20249;-62
2023/04/26 04:01:27;;;;;;;14.40;8.13;;;;;;;18.19;58.08;100420.47;5068716;28;20182;-61
2023/04/26 04:03:53;;;;;;;10.80;6.53;;;;;;;18.50;53.19;100416.63;5066937;28;20224;-61
2023/04/26 04:06:18;;;;;;;8.80;5.30;;;;;;;18.61;50.38;100421.34;5069028;28;20233;-60
2023/04/26 04:08:44;;;;;;;8.73;4.70;;;;;;;18.74;50.64;100419.97;5070705;28;20198;-61
2023/04/26 04:11:09;;;;;;;5.77;3.50;;;;;;;18.87;50.47;100417.78;5050939;28;20242;-61
2023/04/26 04:13:35;;;;;;;9.83;3.33;;;;;;;19.12;50.54;100419.84;5066242;28;20183;-61
2023/04/26 04:16:00;;;;;;;7.07;3.57;;;;;;;19.40;50.54;100408.94;5053229;28;20187;-60
2023/04/26 04:18:26;;;;;;;6.40;3.50;;;;;;;19.60;49.95;100413.34;5068792;28;20175;-60
2023/04/26 04:20:51;;;;;;;9.30;2.70;;;;;;;19.71;49.56;100413.53;5068106;28;20213;-61
2023/04/26 04:23:17;;;;;;;4.77;2.90;;;;;;;19.72;49.09;100413.13;5071304;28;20223;-61
2023/04/26 04:25:44;;;;;;;5.90;2.97;;;;;;;19.68;49.46;100415.13;5049107;28;20186;-61
2023/04/26 04:28:10;;;;;;;4.80;3.00;;;;;;;19.60;49.68;100421.94;5067373;28;20313;-61
2023/04/26 04:30:36;;;;;;;5.10;2.90;;;;;;;19.77;50.09;100424.25;5067643;28;20459;-60
2023/04/26 04:33:02;;;;;;;9.77;2.80;;;;;;;19.64;50.30;100422.81;5052379;28;20438;-60
2023/04/26 04:35:32;;;;;;;3.73;2.50;;;;;;;19.61;50.18;100426.44;5068880;28;20167;-61
2023/04/26 04:37:57;;;;;;;6.50;2.40;;;;;;;19.80;51.18;100428.38;5067582;28;20437;-61
2023/04/26 04:40:23;;;;;;;3.77;2.20;;;;;;;19.76;50.05;100431.19;5073136;28;20468;-60
2023/04/26 04:42:49;;;;;;;7.27;2.23;;;;;;;19.51;50.60;100423.44;5067760;28;20181;-61
2023/04/26 04:45:16;;;;;;;4.50;2.50;;;;;;;19.35;51.23;100432.16;5071496;28;20285;-61
2023/04/26 04:47:42;;;;;;;6.30;2.63;;;;;;;19.35;51.19;100435.03;5069361;28;20889;-61
2023/04/26 04:50:08;;;;;;;3.13;1.90;;;;;;;19.31;51.25;100439.84;5049587;28;20421;-61
2023/04/26 04:52:33;;;;;;;4.60;2.03;;;;;;;19.37;51.47;100444.03;5075923;28;20437;-60
2023/04/26 04:55:00;;;;;;;4.53;2.03;;;;;;;19.31;51.85;100439.84;5068715;28;20577;-60
2023/04/26 04:57:25;;;;;;;3.13;1.90;;;;;;;19.30;52.18;100449.66;5068874;28;20203;-60
2023/04/26 04:59:51;;;;;;;2.93;1.83;;;;;;;19.32;52.28;100452.97;5050729;28;20538;-60
2023/04/26 05:02:16;;;;;;;6.33;1.83;;;;;;;19.14;52.44;100445.25;5055938;28;20186;-60
2023/04/26 05:04:42;;;;;;;4.57;2.20;;;;;;;19.01;52.36;100456.03;5033122;28;20209;-62
2023/04/26 05:07:08;;;;;;;5.47;2.07;;;;;;;19.06;51.88;100454.91;5070282;28;20198;-60
2023/04/26 05:09:33;;;;;;;3.77;2.20;;;;;;;18.98;52.32;100450.25;5050411;28;20175;-61
2023/04/26 05:11:59;;;;;;;3.33;1.90;;;;;;;19.01;52.24;100458.91;5068059;28;20510;-61
2023/04/26 05:14:25;;;;;;;3.60;1.70;;;;;;;19.04;52.46;100465.91;5071917;28;20190;-61
2023/04/26 05:16:50;;;;;;;3.80;2.07;;;;;;;19.00;52.54;100470.72;5068381;28;20167;-61
2023/04/26 05:19:15;;;;;;;2.90;1.63;;;;;;;18.93;53.09;100465.72;5071554;28;21013;-61
2023/04/26 05:21:41;;;;;;;3.00;1.77;;;;;;;18.93;53.20;100468.59;5050355;28;20652;-62
2023/04/26 05:24:06;;;;;;;6.53;1.80;;;;;;;18.91;53.44;100464.44;5067976;28;20920;-62
2023/04/26 05:26:34;;;;;;;5.40;1.90;;;;;;;18.92;53.53;100466.91;5085079;28;20553;-62
2023/04/26 05:28:59;;;;;;;3.43;1.70;;;;;;;18.92;53.48;100472.63;5088478;28;20995;-60
2023/04/26 05:31:25;;;;;;;3.10;1.37;;;;;;;18.87;54.11;100463.53;5040865;28;20485;-62
2023/04/26 05:33:51;;;;;;;4.10;1.90;;;;;;;18.90;54.37;100471.34;5064069;28;20183;-62
2023/04/26 05:36:16;;;;;;;3.20;1.50;;;;;;;18.85;54.58;100472.50;5050245;28;20158;-61
2023/04/26 05:38:42;;;;;;;4.20;1.30;;;;;;;18.84;54.59;100465.13;5036524;28;20193;-60
2023/04/26 05:41:07;;;;;;;3.63;1.97;;;;;;;18.80;54.90;100469.94;5067775;28;20208;-61
2023/04/26 05:43:33;;;;;;;2.70;1.63;;;;;;;18.80;54.96;100463.38;5067852;28;20262;-61
2023/04/26 05:45:59;;;;;;;5.10;1.40;;;;;;;18.77;55.15;100479.28;5080115;28;20174;-61
2023/04/26 05:48:24;;;;;;;3.97;1.70;;;;;;;18.77;55.14;100481.31;5085887;28;20167;-61
2023/04/26 05:50:50;;;;;;;2.70;1.73;;;;;;;18.76;55.58;100486.19;5070610;28;20186;-62
2023/04/26 05:53:16;;;;;;;3.10;1.77;;;;;;;18.75;55.69;100489.44;5067991;28;20650;-61
2023/04/26 05:55:42;;;;;;;2.73;1.60;;;;;;;18.74;55.78;100490.66;5064544;28;20979;-61
2023/04/26 05:58:08;;;;;;;5.47;1.40;;;;;;;18.73;55.77;100486.97;5088079;28;20516;-61
2023/04/26 06:00:33;;;;;;;4.10;1.40;;;;;;;18.73;56.07;100498.41;5064441;28;20855;-61
2023/04/26 06:02:59;;;;;;;5.40;1.50;;;;;;;18.74;56.04;100508.66;5067581;28;20191;-61
2023/04/26 06:05:25;;;;;;;2.77;1.80;;;;;;;18.71;56.14;100503.66;5068113;28;20802;-61
2023/04/26 06:07:50;;;;;;;2.43;1.50;;;;;;;18.71;56.41;100505.72;5086596;28;21078;-61
2023/04/26 06:10:16;;;;;;;3.10;1.60;;;;;;;18.71;56.11;100506.53;5087860;28;20154;-61
2023/04/26 06:12:41;;;;;;;2.40;1.60;;;;;;;18.69;56.29;100500.38;5077011;28;20642;-62
2023/04/26 06:15:07;;;;;;;3.20;1.57;;;;;;;18.69;56.50;100508.09;5050384;28;20175;-61
2023/04/26 06:17:33;;;;;;;2.10;1.10;;;;;;;18.68;56.55;100510.16;5062205;28;20666;-61
2023/04/26 06:19:58;;;;;;;5.20;1.57;;;;;;;18.67;56.67;100505.63;5091199;28;20198;-60
2023/04/26 06:22:24;;;;;;;2.80;1.67;;;;;;;18.68;56.49;100506.47;5092054;28;20586;-60
2023/04/26 06:24:50;;;;;;;2.67;1.60;;;;;;;18.67;56.74;100505.63;5078976;28;20648;-61
2023/04/26 06:27:15;;;;;;;2.80;1.70;;;;;;;18.64;56.92;100500.69;5071604;28;20533;-60
2023/04/26 06:29:42;;;;;;;3.03;1.30;;;;;;;18.64;57.05;100500.69;5073785;28;20182;-61
2023/04/26 06:32:07;;;;;;;1.93;1.30;;;;;;;18.63;56.82;100504.75;5049844;28;20187;-61
2023/04/26 06:34:33;;;;;;;3.60;1.50;;;;;;;18.64;57.04;100499.84;5072851;28;20493;-61
2023/04/26 06:36:58;;;;;;;2.50;1.50;;;;;;;18.63;57.13;100499.03;5071374;28;20284;-60
2023/04/26 06:39:24;;;;;;;3.50;2.00;;;;;;;18.63;57.23;100495.31;5085857;28;20217;-62
2023/04/26 06:41:50;;;;;;;3.07;1.50;;;;;;;18.61;57.32;100487.13;5074366;28;20175;-61
2023/04/26 06:44:15;;;;;;;2.67;1.37;;;;;;;18.60;57.09;100494.06;5071199;28;20186;-61
2023/04/26 06:46:40;;;;;;;3.50;1.57;;;;;;;18.62;57.15;100493.69;5068934;28;20182;-61
2023/04/26 06:49:06;;;;;;;2.30;1.50;;;;;;;18.60;57.29;100484.63;5071167;28;20171;-61
2023/04/26 06:51:32;;;;;;;2.87;1.30;;;;;;;18.67;57.23;100482.75;5071186;28;20175;-61
2023/04/26 06:53:59;;;;;;;2.20;1.40;;;;;;;18.62;57.18;100474.47;5072853;28;20536;-61
2023/04/26 06:56:25;;;;;;;2.40;1.20;;;;;;;18.60;57.28;100471.19;5073344;28;20171;-60
2023/04/26 06:59:03;;;;;;;2.50;1.50;;;;;;;18.60;57.49;100476.88;5073311;28;20510;-62
2023/04/26 07:01:32;;;;;;;2.57;1.50;;;;;;;18.60;57.43;100471.19;5091554;28;20162;-60
2023/04/26 07:03:57;;;;;;;2.00;1.23;;;;;;;18.61;57.35;100472.81;5091506;28;20408;-60
2023/04/26 07:06:23;;;;;;;3.13;1.40;;;;;;;18.62;57.58;100463.03;5073683;28;20437;-62
2023/04/26 07:08:50;;;;;;;2.57;1.50;;;;;;;18.61;57.45;100467.09;5070188;28;20225;-61
2023/04/26 07:11:15;;;;;;;2.90;1.40;;;;;;;18.67;57.68;100477.03;5071658;28;20501;-61
2023/04/26 07:13:40;;;;;;;2.20;1.43;;;;;;;18.64;57.68;100476.97;5071306;28;20417;-61
2023/04/26 07:16:06;;;;;;;2.70;1.27;;;;;;;18.64;57.74;100471.25;5068647;28;20163;-60
2023/04/26 07:18:31;;;;;;;2.27;1.20;;;;;;;18.61;57.62;100472.81;5068884;28;20171;-61
2023/04/26 07:20:57;;;;;;;3.23;1.30;;;;;;;18.64;57.53;100471.25;5071410;28;20203;-61
2023/04/26 07:23:22;;;;;;;2.43;1.43;;;;;;;18.73;57.31;100480.41;5069006;28;20252;-60
2023/04/26 07:25:48;;;;;;;2.23;1.30;;;;;;;18.73;57.37;100478.41;5052417;28;20247;-61
2023/04/26 07:28:13;;;;;;;1.97;1.13;;;;;;;18.71;57.34;100475.06;5069945;28;20179;-60
2023/04/26 07:30:39;;;;;;;2.00;1.40;;;;;;;18.69;57.68;100477.50;5051035;28;20190;-62
2023/04/26 07:33:05;;;;;;;2.50;1.17;;;;;;;18.66;58.13;100474.56;5051781;28;20224;-61
2023/04/26 07:35:30;;;;;;;2.90;1.50;;;;;;;18.63;57.94;100476.16;5075085;28;20201;-60
2023/04/26 07:37:55;;;;;;;2.37;1.30;;;;;;;18.60;58.41;100473.19;5089536;28;20212;-61
2023/04/26 07:40:23;;;;;;;3.80;1.40;;;;;;;18.62;58.31;100479.38;5088065;28;20191;-60
2023/04/26 07:42:49;;;;;;;2.40;1.30;;;;;;;18.61;58.03;100472.81;5075480;28;20650;-61
2023/04/26 07:45:14;;;;;;;2.30;1.40;;;;;;;18.57;58.18;100476.81;5068639;28;20453;-60
2023/04/26 07:47:40;;;;;;;2.43;1.20;;;;;;;18.56;58.31;100478.03;5068675;28;20216;-62
2023/04/26 07:50:06;;;;;;;1.87;1.10;;;;;;;18.55;58.70;100470.63;5072911;28;20224;-61
2023/04/26 07:52:31;;;;;;;3.73;1.67;;;;;;;18.55;58.37;100473.50;5068191;28;20705;-61
2023/04/26 07:54:57;;;;;;;2.63;1.40;;;;;;;18.53;58.47;100482.47;5050134;28;20428;-60
2023/04/26 07:57:23;;;;;;;3.40;1.37;;;;;;;18.51;58.58;100479.16;5050729;28;20170;-60
2023/04/26 07:59:48;;;;;;;2.43;1.33;;;;;;;18.51;58.81;100481.19;5074535;28;20251;-61
2023/04/26 08:02:14;;;;;;;2.00;1.17;;;;;;;18.49;58.92;100481.56;5071713;28;20448;-60
2023/04/26 08:04:46;;;;;;;1.77;1.13;;;;;;;18.50;58.81;100486.06;5067994;28;20174;-61
2023/04/26 08:07:12;;;;;;;2.40;1.43;;;;;;;18.51;59.16;100484.88;5052879;28;20697;-60
2023/04/26 08:09:37;;;;;;;2.40;1.67;;;;;;;18.49;58.82;100487.28;5063791;28;20428;-61
2023/04/26 08:12:03;;;;;;;1.90;1.13;;;;;;;18.49;59.02;100475.84;5028581;28;1160688;-62
2023/04/26 08:14:29;;;;;;;2.50;1.30;;;;;;;18.48;59.00;100482.78;5071236;28;20191;-61
2023/04/26 08:16:55;;;;;;;2.47;1.13;;;;;;;18.49;58.72;100475.00;5069796;28;20440;-61
2023/04/26 08:19:20;;;;;;;5.70;1.37;;;;;;;18.48;58.64;100482.78;5076164;28;20632;-60
2023/04/26 08:21:46;;;;;;;1.80;1.10;;;;;;;18.48;58.92;100490.50;5089763;28;20170;-62
2023/04/26 08:24:11;;;;;;;2.30;1.40;;;;;;;18.48;58.96;100485.63;5085568;28;20179;-61
2023/04/26 08:26:37;;;;;;;2.80;1.27;;;;;;;18.46;59.03;100490.06;5071868;28;20194;-61
2023/04/26 08:29:02;;;;;;;2.20;1.33;;;;;;;18.46;59.14;100490.88;5049437;28;20184;-60
2023/04/26 08:31:28;;;;;;;3.20;1.70;;;;;;;18.47;59.24;100495.38;5062292;28;20179;-60
2023/04/26 08:33:53;;;;;;;2.50;1.27;;;;;;;18.47;58.97;100481.09;5050303;28;20171;-60
2023/04/26 08:36:19;;;;;;;2.50;1.40;;;;;;;18.45;58.86;100480.66;5069895;28;20229;-61
2023/04/26 08:38:45;;;;;;;3.30;1.50;;;;;;;18.48;59.01;100479.06;5067633;28;20236;-61
2023/04/26 08:41:13;;;;;;;2.63;1.20;;;;;;;18.49;58.97;100484.44;5050092;28;20198;-61
2023/04/26 08:43:38;;;;;;;3.70;1.60;;;;;;;18.49;59.00;100475.00;5068740;28;20186;-61
2023/04/26 08:46:06;;;;;;;1.63;1.00;;;;;;;18.52;58.84;100474.28;5053304;28;20409;-61
2023/04/26 08:48:32;;;;;;;2.53;1.37;;;;;;;18.52;58.78;100477.94;5071381;28;20203;-60
2023/04/26 08:50:57;;;;;;;4.83;1.40;;;;;;;18.52;58.58;100480.78;5046949;28;21128;-61
2023/04/26 08:53:22;;;;;;;1.97;1.27;;;;;;;18.54;58.76;100469.00;5088715;28;20173;-61
2023/04/26 08:55:48;;;;;;;1.70;1.00;;;;;;;18.53;58.66;100468.19;5055311;28;20183;-62
2023/04/26 08:58:15;;;;;;;1.70;1.10;;;;;;;18.52;58.67;100468.56;5088114;28;20221;-61
2023/04/26 09:00:42;;;;;;;2.40;1.40;;;;;;;18.52;58.89;100469.34;5084601;28;20292;-61
2023/04/26 09:03:08;;;;;;;2.70;1.53;;;;;;;18.53;58.63;100458.75;5062661;28;20454;-61
2023/04/26 09:05:33;;;;;;;1.83;1.10;;;;;;;18.53;58.85;100461.63;5045883;28;20444;-61
2023/04/26 09:08:00;;;;;;;2.30;1.50;;;;;;;18.50;58.78;100463.19;5068204;28;20198;-60
2023/04/26 09:10:27;;;;;;;1.87;1.20;;;;;;;18.54;58.32;100461.25;5068635;28;20302;-60
2023/04/26 09:12:52;;;;;;;2.30;1.30;;;;;;;18.55;58.68;100465.75;5068892;28;20431;-62
2023/04/26 09:15:19;;;;;;;2.90;1.20;;;;;;;18.59;58.58;100474.41;5068409;28;20421;-61
2023/04/26 09:17:45;;;;;;;2.33;1.17;;;;;;;18.60;58.51;100464.63;5070050;28;20179;-61
2023/04/26 09:20:22;;;;;;;3.30;1.40;;;;;;;18.61;58.55;100449.94;5067285;28;20434;-61
2023/04/26 09:22:49;;;;;;;2.30;1.10;;;;;;;18.56;58.95;100458.81;5067613;28;20266;-61
2023/04/26 09:25:25;;;;;;;2.10;1.07;;;;;;;18.55;58.66;100453.47;5067327;28;20470;-61
2023/04/26 09:27:51;;;;;;;2.20;1.30;;;;;;;18.59;58.97;100460.09;5067208;28;20445;-61
2023/04/26 09:30:17;;;;;;;2.00;1.20;;;;;;;18.55;58.93;100451.47;5067267;28;20417;-61
2023/04/26 09:32:52;;;;;;;1.90;1.10;;;;;;;18.54;58.72;100466.97;5068440;28;20178;-61
2023/04/26 09:35:28;;;;;;;2.10;1.00;;;;;;;18.55;58.95;100453.47;5068350;28;20409;-61
2023/04/26 09:38:12;;;;;;;2.07;1.30;;;;;;;18.53;58.79;100448.16;5068457;28;20432;-61
2023/04/26 09:40:45;;;;;;;2.27;1.13;;;;;;;18.54;58.95;100446.13;5049933;28;20445;-62
2023/04/26 09:43:14;;;;;;;1.87;1.20;;;;;;;18.56;58.64;100441.69;5067895;28;20401;-60
2023/04/26 09:45:55;;;;;;;1.73;1.10;;;;;;;18.57;58.70;100442.50;5070790;28;20416;-61
2023/04/26 09:48:32;;;;;;;2.47;1.40;;;;;;;18.57;58.95;100448.22;5068090;28;20406;-61
2023/04/26 09:51:08;;;;;;;2.97;1.40;;;;;;;18.57;59.05;100442.50;5052024;28;20867;-60
2023/04/26 09:53:38;;;;;;;2.20;1.10;;;;;;;18.57;58.90;100439.66;5067281;28;20885;-61
2023/04/26 09:56:12;;;;;;;2.30;1.30;;;;;;;18.54;59.33;100444.09;5068932;28;20440;-61
2023/04/26 09:58:39;;;;;;;2.80;1.50;;;;;;;18.54;59.29;100438.38;5066954;28;20440;-61
2023/04/26 10:01:08;;;;;;;1.97;1.43;;;;;;;18.54;59.06;100446.97;5048921;28;20437;-61
2023/04/26 10:03:34;;;;;;;1.93;1.13;;;;;;;18.54;59.04;100438.38;5069093;28;20425;-61
2023/04/26 10:06:00;;;;;;;2.07;1.20;;;;;;;18.54;59.01;100435.53;5067226;28;20401;-60
2023/04/26 10:08:25;;;;;;;1.80;1.07;;;;;;;18.54;59.04;100432.66;5055445;28;20479;-61
2023/04/26 10:10:51;;;;;;;2.60;1.30;;;;;;;18.54;58.94;100435.53;5054485;28;20268;-61
2023/04/26 10:13:17;;;;;;;2.40;1.63;;;;;;;18.57;59.09;100436.78;5049391;28;20171;-60
2023/04/26 10:15:43;;;;;;;1.60;0.90;;;;;;;18.56;59.12;100435.16;5067663;28;20282;-60
2023/04/26 10:18:09;;;;;;;1.90;1.00;;;;;;;18.56;58.73;100435.94;5069784;28;20803;-61
2023/04/26 10:20:37;;;;;;;2.43;1.10;;;;;;;18.55;59.08;100434.31;5069529;28;20453;-61
2023/04/26 10:23:02;;;;;;;2.10;1.20;;;;;;;18.53;59.09;100433.03;5049647;28;20190;-60
2023/04/26 10:25:38;;;;;;;2.10;1.20;;;;;;;18.55;59.06;100424.88;5049462;28;20417;-61
2023/04/26 10:28:04;;;;;;;2.53;1.10;;;;;;;18.50;59.01;100436.63;5069575;28;20186;-61
2023/04/26 10:30:29;;;;;;;2.67;1.17;;;;;;;18.54;59.03;100437.53;5067482;28;20505;-61
2023/04/26 10:32:54;;;;;;;1.83;1.17;;;;;;;18.47;59.22;100435.34;5067587;28;20686;-62
2023/04/26 10:35:20;;;;;;;2.30;1.20;;;;;;;18.50;59.06;100426.03;5058467;28;20192;-60
2023/04/26 10:37:58;;;;;;;1.90;1.10;;;;;;;18.51;59.02;100427.69;5047447;28;20203;-61
2023/04/26 10:40:28;;;;;;;2.03;1.00;;;;;;;18.54;58.81;100429.81;5071582;28;20209;-61
2023/04/26 10:43:08;;;;;;;2.83;1.40;;;;;;;18.53;58.95;100430.16;5077146;28;20425;-61
2023/04/26 10:45:34;;;;;;;6.70;2.00;;;;;;;18.53;58.95;100424.44;5049669;28;20425;-61
2023/04/26 10:48:19;;;;;;;2.47;1.40;;;;;;;18.54;59.15;100426.94;5029596;28;20809;-60
2023/04/26 10:51:00;;;;;;;2.07;1.20;;;;;;;18.53;59.05;100422.44;5068841;28;20432;-60
2023/04/26 10:53:52;;;;;;;3.53;1.27;;;;;;;18.55;59.03;100417.16;5049195;28;20436;-61
2023/04/26 10:56:26;;;;;;;2.63;1.20;;;;;;;18.53;58.83;100419.56;5079313;28;20959;-61
2023/04/26 10:59:11;;;;;;;2.90;1.30;;;;;;;18.51;59.02;100412.59;5064984;28;20425;-62
2023/04/26 11:01:38;;;;;;;2.73;1.07;;;;;;;18.55;58.92;100411.44;5064132;28;20413;-61
2023/04/26 11:04:08;;;;;;;1.93;1.10;;;;;;;18.57;58.94;100403.28;5072791;28;20433;-61
2023/04/26 11:06:52;;;;;;;2.27;1.03;;;;;;;18.66;58.63;100398.16;5091385;28;20477;-60
2023/04/26 11:09:38;;;;;;;2.13;1.30;;;;;;;18.59;59.02;100397.19;5071017;28;20401;-62
2023/04/26 11:12:04;;;;;;;2.60;1.27;;;;;;;18.53;59.05;100391.00;5088810;28;21216;-61
2023/04/26 11:14:30;;;;;;;2.93;1.10;;;;;;;18.59;58.83;100389.47;5055019;28;20416;-61
2023/04/26 11:16:56;;;;;;;1.77;1.10;;;;;;;18.65;58.71;100375.66;5085598;28;20429;-60
2023/04/26 11:19:21;;;;;;;2.07;0.97;;;;;;;18.65;58.75;100379.34;5085571;28;20617;-60
2023/04/26 11:21:47;;;;;;;1.70;1.00;;;;;;;18.67;58.87;100371.22;5069281;28;20202;-61